Time;durP1;ratioP1;P1;durP2;ratioP2;P2;SDS_P1;SDS_P2;PMS_P1;PMS_P2;Temp;Humidity;BMP_temperature;BMP_pressure;BME280_temperature;BME280_humidity;BME280_pressure;Samples;Min_cycle;Max_cycle;Signal;HPM_P1;HPM_P2
2021/12/17 00:02:07;;;;;;;28.85;14.43;;;;;;;;;;5031943;28;20049;-66
2021/12/17 00:04:30;;;;;;;27.90;13.68;;;;;;;;;;5035412;28;20049;-65
2021/12/17 00:06:57;;;;;;;29.75;14.80;;;;;;;;;;5035873;28;20123;-66
2021/12/17 00:09:24;;;;;;;30.98;14.93;;;;;;;;;;5035649;28;20046;-66
2021/12/17 00:11:51;;;;;;;29.23;14.77;;;;;;;;;;5035472;28;20046;-66
2021/12/17 00:14:26;;;;;;;30.85;15.13;;;;;;;;;;5035642;28;20060;-67
2021/12/17 00:16:56;;;;;;;31.17;16.27;;;;;;;;;;5035565;28;20060;-66
2021/12/17 00:19:37;;;;;;;30.13;14.77;;;;;;;;;;5035736;28;20061;-65
2021/12/17 00:49:35;;;;;;;29.50;15.68;;;;;;;;;;5035015;28;20484;-67
2021/12/17 00:52:02;;;;;;;28.92;14.80;;;;;;;;;;5034888;28;20068;-66
2021/12/17 00:54:35;;;;;;;32.50;15.45;;;;;;;;;;5034853;28;20053;-67
2021/12/17 00:57:07;;;;;;;27.88;14.38;;;;;;;;;;5035170;28;20085;-67
2021/12/17 00:59:34;;;;;;;27.08;14.40;;;;;;;;;;5035093;28;20076;-66
2021/12/17 01:02:07;;;;;;;28.75;15.45;;;;;;;;;;5034564;28;20554;-66
2021/12/17 01:04:36;;;;;;;31.77;15.98;;;;;;;;;;5034751;28;20084;-67
2021/12/17 01:07:04;;;;;;;31.77;14.88;;;;;;;;;;5034685;28;20053;-66
2021/12/17 01:09:32;;;;;;;26.55;13.73;;;;;;;;;;5034618;28;20490;-66
2021/12/17 01:12:00;;;;;;;28.05;14.93;;;;;;;;;;5034385;28;20084;-66
2021/12/17 01:14:30;;;;;;;26.90;15.57;;;;;;;;;;5034182;28;20099;-66
2021/12/17 01:16:58;;;;;;;27.45;14.20;;;;;;;;;;5034603;28;20132;-67
2021/12/17 01:19:42;;;;;;;29.40;15.23;;;;;;;;;;5034410;28;20050;-66
2021/12/17 01:22:40;;;;;;;30.30;14.25;;;;;;;;;;5034717;28;20080;-67
2021/12/17 01:25:08;;;;;;;29.75;13.60;;;;;;;;;;5034352;28;20502;-66
2021/12/17 01:35:57;;;;;;;23.83;12.77;;;;;;;;;;5034204;28;20060;-66
2021/12/17 01:44:18;;;;;;;26.00;12.88;;;;;;;;;;4980541;28;20050;-66
2021/12/17 01:46:50;;;;;;;27.88;14.00;;;;;;;;;;5018222;28;20050;-66
2021/12/17 01:55:39;;;;;;;28.35;13.55;;;;;;;;;;5034084;28;20053;-67
2021/12/17 02:00:38;;;;;;;24.30;13.32;;;;;;;;;;5033792;28;20180;-66
2021/12/17 02:03:07;;;;;;;23.88;12.85;;;;;;;;;;5033603;28;20041;-66
2021/12/17 02:05:35;;;;;;;23.80;12.27;;;;;;;;;;5033455;28;20136;-66
2021/12/17 02:08:02;;;;;;;20.40;11.68;;;;;;;;;;5033498;28;20473;-66
2021/12/17 02:32:55;;;;;;;27.00;15.25;;;;;;;;;;5002442;28;20407;-67
2021/12/17 02:35:35;;;;;;;24.08;13.50;;;;;;;;;;5032948;28;20045;-66
2021/12/17 02:38:04;;;;;;;26.88;14.20;;;;;;;;;;5033304;28;20140;-65
2021/12/17 02:46:00;;;;;;;26.63;14.82;;;;;;;;;;5032735;28;20110;-66
2021/12/17 02:48:27;;;;;;;26.38;15.68;;;;;;;;;;5032780;28;20053;-66
2021/12/17 02:50:57;;;;;;;29.10;14.75;;;;;;;;;;5032713;28;20411;-66
2021/12/17 02:53:29;;;;;;;26.63;15.50;;;;;;;;;;5033153;28;20046;-68
2021/12/17 02:56:00;;;;;;;27.58;14.73;;;;;;;;;;5032478;28;20290;-67
2021/12/17 02:58:29;;;;;;;26.80;15.23;;;;;;;;;;5032567;28;20058;-65
2021/12/17 03:00:57;;;;;;;27.70;14.35;;;;;;;;;;5032434;28;20045;-67
2021/12/17 03:03:27;;;;;;;28.77;15.70;;;;;;;;;;5032329;28;20051;-66
2021/12/17 03:05:54;;;;;;;30.08;16.55;;;;;;;;;;5033080;28;20516;-66
2021/12/17 03:08:22;;;;;;;27.65;14.93;;;;;;;;;;5032466;28;20049;-66
2021/12/17 03:10:52;;;;;;;32.92;17.67;;;;;;;;;;5032554;28;20056;-66
2021/12/17 03:13:21;;;;;;;25.77;15.53;;;;;;;;;;5032785;28;20072;-66
2021/12/17 03:15:52;;;;;;;33.90;17.60;;;;;;;;;;5032504;28;20140;-66
2021/12/17 03:23:57;;;;;;;31.42;16.13;;;;;;;;;;5032168;28;20060;-66
2021/12/17 03:26:27;;;;;;;28.55;16.23;;;;;;;;;;5032078;28;20054;-65
2021/12/17 03:28:56;;;;;;;32.47;17.20;;;;;;;;;;5032186;28;20057;-66
2021/12/17 03:31:25;;;;;;;31.60;15.95;;;;;;;;;;5032201;28;20045;-66
2021/12/17 03:33:59;;;;;;;29.73;16.90;;;;;;;;;;5032173;28;20054;-66
2021/12/17 03:36:27;;;;;;;33.85;17.13;;;;;;;;;;5032423;28;20555;-66
2021/12/17 03:38:54;;;;;;;28.65;16.15;;;;;;;;;;5032034;28;20054;-67
2021/12/17 03:41:24;;;;;;;31.02;16.08;;;;;;;;;;5032312;28;20487;-66
2021/12/17 03:43:55;;;;;;;31.05;15.55;;;;;;;;;;5031910;28;20487;-65
2021/12/17 03:46:22;;;;;;;;;;;;;;;;;;5055424;22;20107;-63
2021/12/17 03:48:49;;;;;;;31.85;16.95;;;;;;;;;;5051992;28;20300;-61
2021/12/17 03:51:17;;;;;;;29.67;16.23;;;;;;;;;;5051900;28;20055;-63
2021/12/17 03:53:47;;;;;;;28.73;14.52;;;;;;;;;;5052042;28;20053;-63
2021/12/17 03:56:14;;;;;;;27.83;15.82;;;;;;;;;;5051934;28;20049;-62
2021/12/17 03:58:42;;;;;;;31.98;15.43;;;;;;;;;;5051719;28;20049;-62
2021/12/17 04:01:10;;;;;;;27.50;14.68;;;;;;;;;;5051833;28;20049;-62
2021/12/17 04:03:38;;;;;;;27.60;15.55;;;;;;;;;;5051589;28;20059;-61
2021/12/17 04:06:05;;;;;;;28.70;14.85;;;;;;;;;;5052024;28;20053;-62
2021/12/17 04:08:32;;;;;;;30.17;14.68;;;;;;;;;;5051799;28;20053;-62
2021/12/17 04:11:04;;;;;;;25.55;14.00;;;;;;;;;;5052178;28;20417;-60
2021/12/17 04:13:35;;;;;;;26.23;14.00;;;;;;;;;;5052120;28;20410;-61
2021/12/17 04:16:05;;;;;;;26.92;14.77;;;;;;;;;;5052028;28;20045;-61
2021/12/17 04:18:34;;;;;;;;;;;;;;;;;;5052015;28;20052;-61
2021/12/17 04:21:03;;;;;;;23.63;12.50;;;;;;;;;;5052058;28;19927;-61
2021/12/17 04:23:32;;;;;;;27.10;14.88;;;;;;;;;;5051898;28;20060;-61
2021/12/17 04:26:00;;;;;;;28.55;14.55;;;;;;;;;;5052088;28;20410;-61
2021/12/17 04:28:27;;;;;;;28.23;14.35;;;;;;;;;;5052023;28;20055;-61
2021/12/17 04:30:55;;;;;;;25.40;13.73;;;;;;;;;;5052208;28;20067;-61
2021/12/17 04:33:22;;;;;;;27.45;13.75;;;;;;;;;;5051711;28;20422;-59
2021/12/17 04:35:50;;;;;;;25.23;14.00;;;;;;;;;;5051823;28;20132;-60
2021/12/17 04:38:18;;;;;;;22.85;12.95;;;;;;;;;;5052186;28;20048;-61
2021/12/17 04:40:45;;;;;;;27.90;13.55;;;;;;;;;;5051988;28;20057;-61
2021/12/17 04:43:18;;;;;;;24.83;13.98;;;;;;;;;;5051874;28;20053;-61
2021/12/17 04:45:52;;;;;;;24.65;13.07;;;;;;;;;;5051910;28;20142;-63
2021/12/17 04:59:17;;;;;;;24.83;13.68;;;;;;;;;;5055243;28;20501;-60
2021/12/17 05:01:45;;;;;;;23.80;13.07;;;;;;;;;;5055459;28;20053;-62
2021/12/17 05:04:12;;;;;;;23.45;13.82;;;;;;;;;;5054946;28;20128;-61
2021/12/17 05:06:40;;;;;;;21.00;11.90;;;;;;;;;;5055097;28;20084;-61
2021/12/17 05:09:13;;;;;;;17.20;11.57;;;;;;;;;;5054932;28;20055;-62
2021/12/17 05:19:56;;;;;;;16.55;10.40;;;;;;;;;;5054583;28;20517;-63
2021/12/17 05:22:26;;;;;;;16.35;9.77;;;;;;;;;;5054786;28;20092;-62
2021/12/17 05:24:53;;;;;;;17.15;9.10;;;;;;;;;;5054503;28;20140;-63
2021/12/17 05:27:20;;;;;;;16.98;9.25;;;;;;;;;;5054303;28;20048;-61
2021/12/17 05:29:47;;;;;;;15.05;8.68;;;;;;;;;;5054544;28;20526;-62
2021/12/17 05:32:14;;;;;;;14.32;8.50;;;;;;;;;;5054313;28;20049;-63
2021/12/17 05:34:41;;;;;;;15.43;8.20;;;;;;;;;;5054315;28;20516;-63
2021/12/17 05:37:08;;;;;;;14.82;8.82;;;;;;;;;;5054218;28;20378;-61
2021/12/17 05:39:37;;;;;;;16.65;9.25;;;;;;;;;;5054004;28;20096;-62
2021/12/17 05:42:05;;;;;;;14.75;8.55;;;;;;;;;;5053989;28;20087;-62
2021/12/17 05:44:32;;;;;;;15.38;7.82;;;;;;;;;;5054155;28;20573;-62
2021/12/17 05:46:59;;;;;;;12.68;7.50;;;;;;;;;;5053919;28;20053;-62
2021/12/17 05:49:27;;;;;;;13.57;7.90;;;;;;;;;;5053780;28;20052;-62
2021/12/17 05:51:55;;;;;;;12.65;7.85;;;;;;;;;;5053933;28;20045;-62
2021/12/17 05:54:22;;;;;;;14.02;7.65;;;;;;;;;;5053914;28;20135;-61
2021/12/17 05:56:51;;;;;;;15.02;8.80;;;;;;;;;;5053800;28;20051;-62
2021/12/17 05:59:18;;;;;;;14.10;8.40;;;;;;;;;;5053994;28;20346;-61
2021/12/17 06:01:45;;;;;;;13.93;8.57;;;;;;;;;;5053733;28;20053;-62
2021/12/17 06:04:12;;;;;;;14.13;8.75;;;;;;;;;;5053595;28;20053;-61
2021/12/17 06:06:45;;;;;;;14.38;8.63;;;;;;;;;;5053678;28;20051;-63
2021/12/17 06:09:14;;;;;;;14.68;8.35;;;;;;;;;;5053845;28;20085;-62
2021/12/17 06:11:41;;;;;;;14.85;9.15;;;;;;;;;;5053706;28;20051;-62
2021/12/17 06:14:10;;;;;;;15.13;8.88;;;;;;;;;;5053644;28;20405;-61
2021/12/17 06:16:37;;;;;;;16.48;8.68;;;;;;;;;;5053450;28;20053;-62
2021/12/17 06:19:04;;;;;;;16.58;9.52;;;;;;;;;;5053344;28;20049;-63
2021/12/17 06:21:31;;;;;;;14.52;8.90;;;;;;;;;;5053440;28;20131;-63
2021/12/17 06:23:58;;;;;;;19.90;10.15;;;;;;;;;;5053238;28;20053;-61
2021/12/17 06:26:25;;;;;;;14.55;9.00;;;;;;;;;;5053313;28;20080;-62
2021/12/17 06:28:53;;;;;;;14.25;8.23;;;;;;;;;;5053314;28;20063;-62
2021/12/17 06:31:23;;;;;;;13.35;8.85;;;;;;;;;;5053151;28;20166;-62
2021/12/17 06:33:50;;;;;;;15.35;9.02;;;;;;;;;;5053305;28;20118;-63
2021/12/17 06:36:17;;;;;;;13.63;8.07;;;;;;;;;;5052928;28;20052;-62
2021/12/17 06:38:44;;;;;;;15.32;8.25;;;;;;;;;;5052961;28;20132;-62
2021/12/17 06:41:11;;;;;;;13.48;7.95;;;;;;;;;;5052867;28;20055;-62
2021/12/17 06:43:40;;;;;;;12.70;7.30;;;;;;;;;;5052958;28;20049;-61
2021/12/17 06:46:20;;;;;;;12.23;7.72;;;;;;;;;;5053357;28;20052;-62
2021/12/17 06:48:56;;;;;;;13.13;7.55;;;;;;;;;;5052851;28;20049;-62
2021/12/17 06:59:55;;;;;;;9.00;6.00;;;;;;;;;;5052763;28;20132;-62
2021/12/17 07:10:40;;;;;;;8.50;4.80;;;;;;;;;;5052194;28;20064;-62
2021/12/17 07:21:52;;;;;;;8.80;5.55;;;;;;;;;;4990660;28;20137;-62
2021/12/17 07:32:49;;;;;;;9.65;6.18;;;;;;;;;;5052324;28;20536;-63
2021/12/17 07:40:47;;;;;;;10.32;6.50;;;;;;;;;;5052322;28;20445;-63
2021/12/17 07:43:23;;;;;;;11.95;7.07;;;;;;;;;;5052035;28;20135;-62
2021/12/17 07:45:50;;;;;;;12.90;7.32;;;;;;;;;;5051837;28;20444;-63
2021/12/17 07:48:17;;;;;;;11.50;7.15;;;;;;;;;;5051860;28;20049;-62
2021/12/17 07:50:44;;;;;;;11.20;7.50;;;;;;;;;;5051890;28;20056;-62
2021/12/17 07:53:13;;;;;;;13.25;7.82;;;;;;;;;;5050985;28;20540;-62
2021/12/17 07:55:40;;;;;;;13.00;7.93;;;;;;;;;;5050119;28;20056;-62
2021/12/17 07:58:07;;;;;;;11.45;7.88;;;;;;;;;;5050006;28;20064;-62
2021/12/17 08:00:34;;;;;;;12.85;7.82;;;;;;;;;;5050350;28;20056;-61
2021/12/17 08:03:01;;;;;;;12.27;7.03;;;;;;;;;;5050016;28;20053;-62
2021/12/17 08:05:28;;;;;;;13.65;7.10;;;;;;;;;;5050145;28;20084;-62
2021/12/17 08:07:55;;;;;;;11.43;6.55;;;;;;;;;;5050407;28;20044;-61
2021/12/17 08:10:23;;;;;;;11.25;6.18;;;;;;;;;;5050039;28;20049;-62
2021/12/17 08:12:54;;;;;;;11.50;6.32;;;;;;;;;;5049788;28;20131;-62
2021/12/17 08:15:27;;;;;;;;;;;;;;;;;;5051031;28;20402;-62
2021/12/17 08:18:18;;;;;;;12.73;6.95;;;;;;;;;;5050168;28;19921;-62
2021/12/17 08:26:19;;;;;;;11.35;6.68;;;;;;;;;;5053714;28;20060;-62
2021/12/17 08:28:56;;;;;;;13.55;7.35;;;;;;;;;;5053593;28;20053;-63
2021/12/17 08:31:23;;;;;;;9.75;6.07;;;;;;;;;;5053506;28;20056;-62
2021/12/17 08:33:51;;;;;;;10.52;6.85;;;;;;;;;;5053358;28;20053;-61
2021/12/17 08:36:18;;;;;;;9.75;6.57;;;;;;;;;;5053379;28;20268;-61
2021/12/17 08:38:46;;;;;;;11.00;6.43;;;;;;;;;;5053424;28;20053;-62
2021/12/17 08:41:15;;;;;;;11.48;6.82;;;;;;;;;;5054043;28;20072;-62
2021/12/17 08:43:42;;;;;;;12.35;8.15;;;;;;;;;;5053305;28;20110;-62
2021/12/17 08:46:09;;;;;;;15.88;9.98;;;;;;;;;;5053244;28;20498;-66
2021/12/17 08:48:36;;;;;;;15.20;7.57;;;;;;;;;;5053369;28;20513;-65
2021/12/17 08:51:06;;;;;;;10.20;6.53;;;;;;;;;;5053342;28;20414;-63
2021/12/17 08:53:33;;;;;;;12.20;7.60;;;;;;;;;;5053197;28;20056;-61
2021/12/17 08:56:00;;;;;;;11.52;6.95;;;;;;;;;;5053230;28;20045;-62
2021/12/17 08:58:28;;;;;;;12.77;6.68;;;;;;;;;;5053405;28;20053;-62
2021/12/17 09:00:56;;;;;;;16.23;10.02;;;;;;;;;;5053256;28;20059;-61
2021/12/17 09:03:23;;;;;;;10.85;6.50;;;;;;;;;;5052783;28;20053;-62
2021/12/17 09:05:50;;;;;;;11.77;6.80;;;;;;;;;;5053051;28;20060;-62
2021/12/17 09:08:18;;;;;;;12.10;6.93;;;;;;;;;;5053032;28;20518;-62
2021/12/17 09:10:45;;;;;;;11.02;6.45;;;;;;;;;;5052823;28;20045;-63
2021/12/17 09:13:12;;;;;;;9.63;5.53;;;;;;;;;;5052671;28;20053;-62
2021/12/17 09:15:41;;;;;;;11.98;6.70;;;;;;;;;;5052840;28;20057;-63
2021/12/17 09:18:08;;;;;;;10.45;6.07;;;;;;;;;;5052738;28;20060;-63
2021/12/17 09:20:35;;;;;;;8.82;5.72;;;;;;;;;;5053004;28;20056;-62
2021/12/17 09:23:02;;;;;;;9.90;6.30;;;;;;;;;;5052765;28;20494;-62
2021/12/17 09:25:29;;;;;;;10.55;6.72;;;;;;;;;;5052570;28;20158;-61
2021/12/17 09:27:56;;;;;;;12.43;8.02;;;;;;;;;;5052174;28;20059;-61
2021/12/17 09:30:23;;;;;;;15.57;8.73;;;;;;;;;;5052527;28;20413;-61
2021/12/17 09:32:52;;;;;;;13.15;7.65;;;;;;;;;;5052536;28;20056;-61
2021/12/17 09:35:21;;;;;;;11.48;7.60;;;;;;;;;;5052483;28;20075;-62
2021/12/17 09:37:48;;;;;;;11.90;7.00;;;;;;;;;;5052371;28;20057;-61
2021/12/17 09:40:15;;;;;;;11.60;6.90;;;;;;;;;;5052346;28;20055;-62
2021/12/17 09:42:44;;;;;;;11.57;7.20;;;;;;;;;;5052384;28;20055;-62
2021/12/17 09:47:55;;;;;;;11.77;6.78;;;;;;;;;;5047037;28;20095;-66
2021/12/17 09:50:23;;;;;;;10.63;6.88;;;;;;;;;;5051936;28;20052;-67
2021/12/17 09:52:50;;;;;;;10.25;6.40;;;;;;;;;;5040511;28;20046;-67
2021/12/17 09:55:17;;;;;;;11.63;6.63;;;;;;;;;;5031806;28;20049;-67
2021/12/17 09:57:44;;;;;;;10.50;7.50;;;;;;;;;;5031461;28;20049;-67
2021/12/17 10:00:15;;;;;;;11.95;7.70;;;;;;;;;;5029339;28;20409;-67
2021/12/17 10:02:43;;;;;;;;;;;;;;;;;;5002850;28;20137;-67
2021/12/17 10:05:15;;;;;;;12.45;7.05;;;;;;;;;;5002030;28;20282;-67
2021/12/17 10:07:44;;;;;;;11.73;7.10;;;;;;;;;;5002435;28;20052;-67
2021/12/17 10:10:12;;;;;;;13.00;7.47;;;;;;;;;;5004505;28;20080;-67
2021/12/17 10:12:41;;;;;;;11.93;7.38;;;;;;;;;;5011523;28;20060;-67
2021/12/17 10:15:10;;;;;;;13.38;7.75;;;;;;;;;;5011870;28;20091;-67
2021/12/17 10:17:50;;;;;;;13.23;8.13;;;;;;;;;;5011477;28;20426;-67
2021/12/17 10:20:18;;;;;;;11.13;7.32;;;;;;;;;;4997342;28;20058;-67
2021/12/17 10:22:46;;;;;;;11.55;7.13;;;;;;;;;;4992533;28;20169;-67
2021/12/17 10:25:13;;;;;;;13.35;7.85;;;;;;;;;;4992134;28;20046;-67
2021/12/17 10:27:42;;;;;;;16.10;9.18;;;;;;;;;;4992005;28;20058;-66
2021/12/17 10:30:13;;;;;;;14.02;8.02;;;;;;;;;;4991802;28;20050;-66
2021/12/17 10:32:43;;;;;;;12.35;7.63;;;;;;;;;;4992459;28;20403;-67
2021/12/17 10:35:12;;;;;;;13.27;7.00;;;;;;;;;;4992421;28;20099;-67
2021/12/17 10:37:43;;;;;;;17.25;8.00;;;;;;;;;;4991910;28;20057;-66
2021/12/17 10:40:23;;;;;;;16.05;8.93;;;;;;;;;;4992269;28;20050;-67
2021/12/17 10:42:59;;;;;;;13.52;7.57;;;;;;;;;;4991929;28;20054;-67
2021/12/17 10:45:29;;;;;;;12.63;7.05;;;;;;;;;;4991599;28;20046;-67
2021/12/17 10:48:21;;;;;;;15.15;8.80;;;;;;;;;;4991908;28;20065;-67
2021/12/17 10:50:48;;;;;;;20.48;10.52;;;;;;;;;;4992598;28;20503;-67
2021/12/17 10:53:17;;;;;;;14.77;8.07;;;;;;;;;;4991712;28;20050;-67
2021/12/17 10:55:47;;;;;;;14.20;8.15;;;;;;;;;;4991678;28;20058;-67
2021/12/17 10:58:14;;;;;;;15.70;8.77;;;;;;;;;;4991417;28;20050;-67
2021/12/17 11:00:50;;;;;;;16.38;8.73;;;;;;;;;;4991237;28;20050;-67
2021/12/17 11:03:17;;;;;;;14.85;8.55;;;;;;;;;;4991158;28;20120;-67
2021/12/17 11:05:44;;;;;;;16.15;8.23;;;;;;;;;;4991457;28;20064;-67
2021/12/17 11:08:28;;;;;;;17.27;9.93;;;;;;;;;;4991172;28;20061;-67
2021/12/17 11:10:58;;;;;;;14.40;8.40;;;;;;;;;;4991368;28;20054;-68
2021/12/17 11:13:27;;;;;;;15.38;8.82;;;;;;;;;;4991185;28;20065;-67
2021/12/17 11:15:55;;;;;;;14.88;8.75;;;;;;;;;;4991308;28;20061;-67
2021/12/17 11:18:26;;;;;;;15.77;9.32;;;;;;;;;;4990911;28;20056;-67
2021/12/17 11:20:55;;;;;;;14.13;8.65;;;;;;;;;;4991113;28;20054;-67
2021/12/17 11:23:24;;;;;;;13.75;9.15;;;;;;;;;;4990931;28;20054;-67
2021/12/17 11:25:54;;;;;;;13.20;8.15;;;;;;;;;;4990795;28;20056;-67
2021/12/17 11:28:22;;;;;;;13.55;8.57;;;;;;;;;;4990778;28;20345;-67
2021/12/17 11:30:51;;;;;;;16.65;9.65;;;;;;;;;;4990807;28;20527;-67
2021/12/17 11:33:18;;;;;;;15.15;9.02;;;;;;;;;;4990900;28;20558;-67
2021/12/17 11:35:47;;;;;;;15.30;10.20;;;;;;;;;;4990802;28;20141;-67
2021/12/17 11:38:16;;;;;;;14.88;8.75;;;;;;;;;;4990703;28;20100;-67
2021/12/17 11:40:49;;;;;;;13.70;9.27;;;;;;;;;;4991062;28;20057;-67
2021/12/17 11:43:52;;;;;;;15.07;9.68;;;;;;;;;;4990452;28;20595;-67
2021/12/17 11:46:24;;;;;;;14.10;8.50;;;;;;;;;;4991055;28;20098;-67
2021/12/17 11:48:53;;;;;;;18.55;10.60;;;;;;;;;;4990336;28;20520;-67
2021/12/17 11:51:25;;;;;;;25.50;13.05;;;;;;;;;;4991061;28;20507;-67
2021/12/17 11:54:05;;;;;;;18.75;10.00;;;;;;;;;;4991342;28;20581;-67
2021/12/17 11:56:38;;;;;;;20.33;11.88;;;;;;;;;;4991691;28;20440;-67
2021/12/17 11:59:05;;;;;;;16.13;10.10;;;;;;;;;;4994328;28;20050;-67
2021/12/17 12:01:55;;;;;;;16.92;11.50;;;;;;;;;;4994860;28;20046;-67
2021/12/17 12:04:53;;;;;;;14.33;9.37;;;;;;;;;;4995001;28;20527;-67
2021/12/17 12:07:31;;;;;;;13.00;9.05;;;;;;;;;;4994761;28;20084;-67
2021/12/17 12:10:23;;;;;;;14.50;8.23;;;;;;;;;;4995762;28;20471;-66
2021/12/17 12:13:00;;;;;;;14.75;8.38;;;;;;;;;;4991513;28;20104;-66
2021/12/17 12:15:39;;;;;;;14.43;8.00;;;;;;;;;;4994823;28;20050;-66
2021/12/17 12:18:11;;;;;;;15.13;8.90;;;;;;;;;;4994384;28;20389;-66
2021/12/17 12:20:40;;;;;;;14.05;8.63;;;;;;;;;;4994196;28;20050;-67
2021/12/17 12:23:17;;;;;;;12.80;9.10;;;;;;;;;;4994492;28;20089;-67
2021/12/17 12:25:46;;;;;;;13.77;9.10;;;;;;;;;;4994432;28;20124;-66
2021/12/17 12:28:16;;;;;;;15.30;8.52;;;;;;;;;;4994643;28;20108;-67
2021/12/17 12:30:45;;;;;;;13.77;9.02;;;;;;;;;;4994642;28;20078;-67
2021/12/17 12:33:15;;;;;;;15.18;8.10;;;;;;;;;;4994213;28;20050;-67
2021/12/17 12:35:56;;;;;;;15.30;9.18;;;;;;;;;;4994302;28;20321;-67
2021/12/17 12:38:30;;;;;;;13.90;9.25;;;;;;;;;;4994089;28;20076;-67
2021/12/17 12:40:58;;;;;;;17.08;9.60;;;;;;;;;;4994073;28;20492;-67
2021/12/17 12:43:28;;;;;;;15.20;9.70;;;;;;;;;;4994587;28;20508;-67
2021/12/17 12:45:55;;;;;;;20.07;11.60;;;;;;;;;;4994326;28;20412;-67
2021/12/17 12:48:33;;;;;;;18.67;11.23;;;;;;;;;;4994122;28;20566;-67
2021/12/17 12:51:14;;;;;;;17.58;11.10;;;;;;;;;;4994177;28;20057;-67
2021/12/17 12:53:46;;;;;;;15.40;9.75;;;;;;;;;;4994513;28;20125;-67
2021/12/17 12:56:17;;;;;;;17.02;9.43;;;;;;;;;;4994745;28;20100;-67
2021/12/17 12:58:50;;;;;;;28.83;18.35;;;;;;;;;;4994076;28;20046;-66
2021/12/17 13:01:20;;;;;;;21.48;12.77;;;;;;;;;;4994698;28;20519;-66
2021/12/17 13:03:48;;;;;;;16.73;10.25;;;;;;;;;;4994105;28;20238;-66
2021/12/17 13:06:17;;;;;;;15.18;9.77;;;;;;;;;;4994156;28;20053;-66
2021/12/17 13:08:53;;;;;;;33.47;17.77;;;;;;;;;;4993570;28;20473;-66
2021/12/17 13:11:21;;;;;;;19.75;12.07;;;;;;;;;;4994125;28;20062;-67
2021/12/17 13:13:56;;;;;;;17.27;10.27;;;;;;;;;;4994002;28;20050;-66
2021/12/17 13:16:35;;;;;;;17.35;10.05;;;;;;;;;;4993792;28;20054;-66
2021/12/17 13:22:01;;;;;;;18.02;10.38;;;;;;;;;;4993550;28;20193;-65
2021/12/17 13:24:31;;;;;;;17.20;9.95;;;;;;;;;;4993549;28;20055;-67
2021/12/17 13:27:00;;;;;;;19.17;10.43;;;;;;;;;;4993359;28;20050;-66
2021/12/17 13:29:32;;;;;;;18.73;10.13;;;;;;;;;;4993195;28;20061;-66
2021/12/17 13:32:02;;;;;;;16.23;9.80;;;;;;;;;;4993558;28;20058;-66
2021/12/17 13:34:32;;;;;;;14.60;9.02;;;;;;;;;;4993587;28;20104;-66
2021/12/17 13:37:18;;;;;;;33.50;10.60;;;;;;;;;;4993120;28;20054;-66
2021/12/17 13:39:48;;;;;;;15.93;9.40;;;;;;;;;;4994507;28;20812;-66
2021/12/17 13:42:16;;;;;;;;;;;;;;;;;;4993691;28;20141;-66
2021/12/17 13:44:47;;;;;;;23.00;10.90;;;;;;;;;;4993434;28;19930;-66
2021/12/17 13:47:21;;;;;;;19.83;11.15;;;;;;;;;;4993380;28;20046;-66
2021/12/17 13:49:51;;;;;;;22.15;11.95;;;;;;;;;;4993507;28;20467;-66
2021/12/17 13:52:22;;;;;;;20.42;11.10;;;;;;;;;;4993616;28;20057;-66
2021/12/17 13:54:50;;;;;;;;;;;;;;;;;;4993596;28;20056;-66
2021/12/17 13:57:18;;;;;;;21.67;11.50;;;;;;;;;;5006904;28;20295;-67
2021/12/17 13:59:47;;;;;;;21.25;11.13;;;;;;;;;;5012233;28;20053;-66
2021/12/17 14:02:17;;;;;;;19.60;10.18;;;;;;;;;;5012205;28;20060;-66
2021/12/17 14:04:58;;;;;;;38.03;19.65;;;;;;;;;;5012516;28;20423;-66
2021/12/17 14:07:27;;;;;;;23.75;12.75;;;;;;;;;;5012724;28;20056;-66
2021/12/17 14:09:58;;;;;;;25.83;13.55;;;;;;;;;;5012166;28;20046;-67
2021/12/17 14:12:29;;;;;;;;;;;;;;;;;;5012694;28;20049;-66
2021/12/17 14:15:04;;;;;;;21.00;10.63;;;;;;;;;;5012408;28;20350;-66
2021/12/17 14:17:36;;;;;;;18.63;9.00;;;;;;;;;;5012127;28;20058;-65
2021/12/17 14:20:16;;;;;;;17.00;10.10;;;;;;;;;;5011293;28;20057;-66
2021/12/17 14:22:45;;;;;;;16.92;9.73;;;;;;;;;;5011714;28;20494;-67
2021/12/17 14:25:33;;;;;;;13.38;7.93;;;;;;;;;;5012005;28;20134;-66
2021/12/17 14:28:03;;;;;;;15.75;8.05;;;;;;;;;;5011465;28;20129;-66
2021/12/17 14:30:36;;;;;;;16.23;9.10;;;;;;;;;;5011851;28;20081;-66
2021/12/17 14:33:08;;;;;;;17.40;8.88;;;;;;;;;;5011695;28;20046;-66
2021/12/17 14:36:00;;;;;;;19.08;10.68;;;;;;;;;;5011857;28;20075;-66
2021/12/17 14:38:41;;;;;;;17.80;9.63;;;;;;;;;;5001539;28;20099;-66
2021/12/17 14:41:13;;;;;;;16.13;9.35;;;;;;;;;;5011637;28;20053;-66
2021/12/17 14:43:45;;;;;;;18.92;10.00;;;;;;;;;;5011125;28;20049;-66
2021/12/17 14:46:22;;;;;;;17.55;9.30;;;;;;;;;;5011171;28;20096;-66
2021/12/17 14:49:10;;;;;;;17.33;8.70;;;;;;;;;;5011325;28;20085;-66
2021/12/17 15:02:51;;;;;;;14.90;7.63;;;;;;;;;;5011371;28;20081;-66
2021/12/17 15:05:20;;;;;;;15.32;8.05;;;;;;;;;;5011466;28;20415;-66
2021/12/17 15:07:48;;;;;;;15.48;8.27;;;;;;;;;;5010671;28;20073;-66
2021/12/17 15:10:18;;;;;;;17.80;9.00;;;;;;;;;;5005672;28;20440;-66
2021/12/17 15:12:45;;;;;;;17.50;9.15;;;;;;;;;;5001325;28;20046;-66
2021/12/17 15:15:26;;;;;;;18.85;10.02;;;;;;;;;;5000707;28;20502;-66
2021/12/17 15:17:56;;;;;;;18.17;10.25;;;;;;;;;;5007603;28;20053;-66
2021/12/17 15:20:25;;;;;;;21.13;10.10;;;;;;;;;;5005238;28;20033;-67
2021/12/17 15:22:53;;;;;;;16.13;9.32;;;;;;;;;;5011076;28;20046;-65
2021/12/17 15:25:22;;;;;;;18.33;10.25;;;;;;;;;;5010673;28;20399;-66
2021/12/17 15:27:49;;;;;;;33.78;19.05;;;;;;;;;;5010304;28;20054;-66
2021/12/17 15:30:20;;;;;;;37.15;18.85;;;;;;;;;;5002715;28;20049;-66
2021/12/17 15:32:47;;;;;;;22.40;12.90;;;;;;;;;;5004418;28;20049;-66
2021/12/17 15:35:18;;;;;;;20.38;10.73;;;;;;;;;;5010585;28;20046;-66
2021/12/17 15:37:45;;;;;;;19.70;10.30;;;;;;;;;;5010400;28;20081;-66
2021/12/17 15:40:12;;;;;;;19.27;10.35;;;;;;;;;;4992909;28;20129;-67
2021/12/17 15:42:41;;;;;;;20.02;11.30;;;;;;;;;;4989966;28;20054;-68
2021/12/17 15:45:10;;;;;;;41.10;22.63;;;;;;;;;;4990924;28;20057;-66
2021/12/17 15:47:38;;;;;;;43.00;25.73;;;;;;;;;;5014060;23;20523;-61
2021/12/17 15:50:08;;;;;;;23.58;12.70;;;;;;;;;;5010718;28;20068;-61
2021/12/17 15:52:36;;;;;;;19.55;11.05;;;;;;;;;;5010443;28;20133;-62
2021/12/17 15:55:05;;;;;;;21.90;11.57;;;;;;;;;;5010798;28;20093;-62
2021/12/17 15:57:32;;;;;;;19.67;12.43;;;;;;;;;;5010639;28;20075;-62
2021/12/17 15:59:59;;;;;;;21.05;11.57;;;;;;;;;;5010592;28;20073;-61
2021/12/17 16:02:26;;;;;;;18.42;11.15;;;;;;;;;;5010511;28;20128;-61
2021/12/17 16:04:53;;;;;;;19.70;11.25;;;;;;;;;;5010968;28;20423;-62
2021/12/17 16:07:20;;;;;;;20.75;11.20;;;;;;;;;;5010476;28;20045;-61
2021/12/17 16:18:15;;;;;;;19.50;10.85;;;;;;;;;;5011328;28;20741;-62
2021/12/17 16:21:02;;;;;;;21.08;11.27;;;;;;;;;;5011078;28;20053;-62
2021/12/17 16:23:31;;;;;;;20.55;12.07;;;;;;;;;;5010749;28;20058;-61
2021/12/17 16:26:00;;;;;;;21.17;12.23;;;;;;;;;;5010614;28;20469;-60
2021/12/17 16:28:28;;;;;;;19.35;11.45;;;;;;;;;;5010285;28;20056;-62
2021/12/17 16:31:04;;;;;;;20.92;11.35;;;;;;;;;;5010374;28;20213;-61
2021/12/17 16:33:32;;;;;;;18.77;11.00;;;;;;;;;;5010194;28;20057;-62
2021/12/17 16:36:00;;;;;;;20.05;11.77;;;;;;;;;;5010536;28;20410;-62
2021/12/17 16:38:27;;;;;;;20.10;11.77;;;;;;;;;;5010700;28;20447;-62
2021/12/17 16:40:55;;;;;;;18.75;11.13;;;;;;;;;;5010393;28;20072;-62
2021/12/17 16:43:23;;;;;;;19.92;11.00;;;;;;;;;;5010111;28;20046;-62
2021/12/17 16:46:04;;;;;;;20.45;11.57;;;;;;;;;;5013804;28;20049;-62
2021/12/17 16:48:31;;;;;;;21.75;12.30;;;;;;;;;;5013800;28;20478;-61
2021/12/17 16:51:00;;;;;;;21.48;11.98;;;;;;;;;;5013773;28;20133;-61
2021/12/17 16:53:27;;;;;;;22.15;11.90;;;;;;;;;;5013982;28;20104;-61
2021/12/17 16:55:54;;;;;;;26.23;13.05;;;;;;;;;;5013879;28;20046;-61
2021/12/17 16:58:23;;;;;;;25.30;13.15;;;;;;;;;;5013794;28;20061;-62
2021/12/17 17:00:50;;;;;;;26.38;14.27;;;;;;;;;;5013748;28;20137;-61
2021/12/17 17:03:17;;;;;;;27.73;14.35;;;;;;;;;;5013684;28;20049;-62
2021/12/17 17:05:45;;;;;;;24.10;13.18;;;;;;;;;;5013407;28;20085;-61
2021/12/17 17:08:12;;;;;;;24.35;12.55;;;;;;;;;;5013421;28;20049;-63
2021/12/17 17:10:40;;;;;;;26.50;12.88;;;;;;;;;;5013427;28;20046;-62
2021/12/17 17:13:07;;;;;;;23.67;12.45;;;;;;;;;;5013462;28;20049;-62
2021/12/17 17:15:36;;;;;;;25.80;13.07;;;;;;;;;;5013645;28;20484;-62
2021/12/17 17:18:04;;;;;;;24.50;13.75;;;;;;;;;;5013076;28;20050;-61
2021/12/17 17:20:31;;;;;;;24.25;13.80;;;;;;;;;;5012987;28;20137;-62
2021/12/17 17:22:58;;;;;;;23.45;12.90;;;;;;;;;;5013842;28;20050;-62
2021/12/17 17:25:25;;;;;;;29.63;13.98;;;;;;;;;;5013543;28;20052;-64
2021/12/17 17:27:53;;;;;;;25.33;14.20;;;;;;;;;;5013245;28;20068;-61
2021/12/17 17:30:21;;;;;;;24.02;14.07;;;;;;;;;;5013312;28;20137;-62
2021/12/17 17:32:50;;;;;;;26.27;14.98;;;;;;;;;;5013437;28;20120;-62
2021/12/17 17:35:17;;;;;;;23.77;14.25;;;;;;;;;;5013341;28;20482;-62
2021/12/17 17:37:45;;;;;;;22.85;12.35;;;;;;;;;;5012830;28;20061;-62